Time;durP1;ratioP1;P1;durP2;ratioP2;P2;SDS_P1;SDS_P2;PMS_P1;PMS_P2;Temp;Humidity;BMP_temperature;BMP_pressure;BME280_temperature;BME280_humidity;BME280_pressure;Samples;Min_cycle;Max_cycle;Signal;HPM_P1;HPM_P2
2022/11/06 00:00:30;;;;;;;;;;;;;;;10.16;100.00;98377.91;5118192;28;19987;-62
2022/11/06 00:02:57;;;;;;;;;;;;;;;10.16;100.00;98378.75;5119438;28;20063;-62
2022/11/06 00:08:08;;;;;;;;;;;;;;;10.10;100.00;98376.22;5117729;28;19962;-62
2022/11/06 00:10:34;;;;;;;;;;;;;;;10.05;100.00;98381.50;5117853;28;20594;-63
2022/11/06 00:13:00;;;;;;;;;;;;;;;10.00;100.00;98381.41;5120427;28;19975;-63
2022/11/06 00:15:27;;;;;;;;;;;;;;;10.06;100.00;98372.41;5121350;28;19924;-62
2022/11/06 00:17:54;;;;;;;;;;;;;;;10.03;100.00;98359.56;5119623;28;20010;-62
2022/11/06 00:20:21;;;;;;;;;;;;;;;9.99;100.00;98371.81;5117780;28;19995;-63
2022/11/06 00:22:47;;;;;;;;;;;;;;;10.02;100.00;98377.47;5123773;28;19984;-63
2022/11/06 00:25:13;;;;;;;;;;;;;;;9.94;100.00;98383.22;5121254;28;20362;-61
2022/11/06 00:27:41;;;;;;;;;;;;;;;9.94;100.00;98377.06;5104795;28;19934;-65
2022/11/06 00:30:10;;;;;;;;;;;;;;;9.93;100.00;98372.81;5121065;28;19991;-63
2022/11/06 00:32:36;;;;;;;;;;;;;;;9.95;100.00;98368.84;5121266;28;19931;-62
2022/11/06 00:35:04;;;;;;;;;;;;;;;9.97;100.00;98373.91;5123974;28;20419;-62
2022/11/06 00:37:30;;;;;;;;;;;;;;;9.89;100.00;98375.16;5124642;28;19932;-63
2022/11/06 00:39:58;;;;;;;;;;;;;;;9.81;100.00;98378.25;5122521;28;19963;-63
2022/11/06 00:42:24;;;;;;;;;;;;;;;9.85;100.00;98378.56;5121284;28;19935;-62
2022/11/06 00:44:51;;;;;;;;;;;;;;;9.93;100.00;98378.97;5122171;28;19923;-62
2022/11/06 00:47:17;;;;;;;;;;;;;;;9.96;100.00;98380.31;5124437;28;20006;-63
2022/11/06 00:49:43;;;;;;;;;;;;;;;9.94;100.00;98375.22;5124347;28;19930;-62
2022/11/06 00:52:11;;;;;;;;;;;;;;;9.94;100.00;98377.06;5121844;28;19992;-62
2022/11/06 00:54:37;;;;;;;;;;;;;;;9.92;100.00;98382.66;5125077;28;19996;-63
2022/11/06 00:57:03;;;;;;;;;;;;;;;9.92;100.00;98392.53;5123714;28;19959;-62
2022/11/06 00:59:30;;;;;;;;;;;;;;;9.93;100.00;98386.16;5124378;28;19987;-63
2022/11/06 01:01:56;;;;;;;;;;;;;;;9.96;100.00;98385.66;5103696;28;19979;-62
2022/11/06 01:04:24;;;;;;;;;;;;;;;9.76;100.00;98376.31;5120647;28;19955;-63
2022/11/06 01:06:51;;;;;;;;;;;;;;;9.78;100.00;98386.72;5121637;28;19983;-63
2022/11/06 01:09:20;;;;;;;;;;;;;;;9.84;100.00;98382.28;5123730;28;19991;-62
2022/11/06 01:11:48;;;;;;;;;;;;;;;9.77;100.00;98395.81;5123277;28;19967;-62
2022/11/06 01:14:15;;;;;;;;;;;;;;;9.72;100.00;98393.06;5120273;28;19980;-62
2022/11/06 01:16:42;;;;;;;;;;;;;;;9.69;100.00;98383.69;5120214;28;19991;-62
2022/11/06 01:19:08;;;;;;;;;;;;;;;9.73;100.00;98379.47;5111717;28;19992;-62
2022/11/06 01:21:36;;;;;;;;;;;;;;;9.80;100.00;98367.84;5111534;28;20192;-62
2022/11/06 01:24:03;;;;;;;;;;;;;;;9.55;100.00;98368.28;5125850;28;19995;-62
2022/11/06 01:26:31;;;;;;;;;;;;;;;9.42;100.00;98366.75;5120181;28;19987;-62
2022/11/06 01:28:57;;;;;;;;;;;;;;;9.32;100.00;98365.78;5121901;28;19958;-63
2022/11/06 01:31:25;;;;;;;;;;;;;;;9.33;100.00;98364.75;5123567;28;19951;-62
2022/11/06 01:33:52;;;;;;;;;;;;;;;9.44;100.00;98367.31;5121955;28;19928;-62
2022/11/06 01:36:19;;;;;;;;;;;;;;;9.55;100.00;98369.09;5120051;28;20007;-63
2022/11/06 01:38:47;;;;;;;;;;;;;;;9.55;100.00;98371.75;5119879;28;20024;-62
2022/11/06 01:41:14;;;;;;;;;;;;;;;9.62;100.00;98374.25;5123048;28;19924;-62
2022/11/06 01:43:46;;;;;;;;;;;;;;;9.68;100.00;98371.44;5123343;28;19955;-62
2022/11/06 01:46:12;;;;;;;;;;;;;;;9.67;100.00;98375.13;5119520;28;19936;-63
2022/11/06 01:48:39;;;;;;;;;;;;;;;9.70;100.00;98371.16;5119572;28;20000;-62
2022/11/06 01:51:06;;;;;;;;;;;;;;;9.48;100.00;98364.97;5122927;28;19923;-63
2022/11/06 01:53:34;;;;;;;;;;;;;;;9.44;100.00;98361.19;5116094;28;19934;-62
2022/11/06 01:56:03;;;;;;;;;;;;;;;9.46;100.00;98356.41;5119627;28;19934;-62
2022/11/06 01:58:31;;;;;;;;;;;;;;;9.59;100.00;98361.41;5119629;28;19988;-62
2022/11/06 02:00:59;;;;;;;;;;;;;;;9.61;100.00;98359.31;5121288;28;19991;-62
2022/11/06 02:03:25;;;;;;;;;;;;;;;9.54;100.00;98359.47;5122273;28;20172;-61
2022/11/06 02:05:53;;;;;;;;;;;;;;;9.56;100.00;98357.34;5121209;28;19924;-62
2022/11/06 02:08:20;;;;;;;;;;;;;;;9.56;100.00;98349.34;5119098;28;19924;-62
2022/11/06 02:10:47;;;;;;;;;;;;;;;9.68;100.00;98354.63;5119451;28;19924;-61
2022/11/06 02:13:21;;;;;;;;;;;;;;;9.70;100.00;98347.16;5122346;28;19931;-62
2022/11/06 02:15:49;;;;;;;;;;;;;;;9.55;100.00;98346.97;5103633;28;19935;-62
2022/11/06 02:18:24;;;;;;;;;;;;;;;9.54;100.00;98353.34;5118533;28;19996;-62
2022/11/06 02:20:59;;;;;;;;;;;;;;;9.43;100.00;98359.56;5119790;28;19931;-62
2022/11/06 02:23:31;;;;;;;;;;;;;;;9.26;100.00;98364.09;5127836;28;19995;-63
2022/11/06 02:26:02;;;;;;;;;;;;;;;9.33;100.00;98367.41;5120152;28;19924;-62
2022/11/06 02:28:33;;;;;;;;;;;;;;;9.33;100.00;98367.41;5118950;28;19983;-62
2022/11/06 02:31:00;;;;;;;;;;;;;;;9.36;100.00;98365.06;5121021;28;19956;-63
2022/11/06 02:33:28;;;;;;;;;;;;;;;9.50;100.00;98365.56;5122067;28;19991;-62
2022/11/06 02:35:57;;;;;;;;;;;;;;;9.52;100.00;98356.25;5120490;28;19962;-62
2022/11/06 02:38:26;;;;;;;;;;;;;;;9.60;100.00;98361.16;5118592;28;19931;-62
2022/11/06 02:40:54;;;;;;;;;;;;;;;9.33;100.00;98349.56;5119972;28;19939;-62
2022/11/06 02:43:21;;;;;;;;;;;;;;;9.29;100.00;98359.09;5121891;28;19923;-63
2022/11/06 02:45:53;;;;;;;;;;;;;;;9.38;100.00;98357.63;5121146;28;19991;-63
2022/11/06 02:48:22;;;;;;;;;;;;;;;9.45;100.00;98357.47;5118266;28;19990;-62
2022/11/06 02:50:50;;;;;;;;;;;;;;;9.43;100.00;98351.59;5118777;28;20015;-62
2022/11/06 02:53:17;;;;;;;;;;;;;;;9.42;100.00;98349.97;5117319;28;19928;-62
2022/11/06 02:55:46;;;;;;;;;;;;;;;9.30;100.00;98351.91;5118590;28;19995;-63
2022/11/06 02:58:16;;;;;;;;;;;;;;;9.23;100.00;98357.41;5118458;28;20133;-62
2022/11/06 03:00:44;;;;;;;;;;;;;;;9.37;100.00;98348.03;5118267;28;19991;-63
2022/11/06 03:03:13;;;;;;;;;;;;;;;9.38;100.00;98341.63;5117643;28;19983;-63
2022/11/06 03:05:43;;;;;;;;;;;;;;;9.50;100.00;98345.00;5118393;28;19924;-62
2022/11/06 03:08:13;;;;;;;;;;;;;;;9.41;100.00;98351.03;5118368;28;19988;-62
2022/11/06 03:10:43;;;;;;;;;;;;;;;9.43;100.00;98355.06;5118636;28;19928;-62
2022/11/06 03:13:14;;;;;;;;;;;;;;;9.45;100.00;98344.94;5100824;28;19924;-62
2022/11/06 03:15:43;;;;;;;;;;;;;;;9.56;100.00;98356.56;5118597;28;20201;-62
2022/11/06 03:18:12;;;;;;;;;;;;;;;9.40;100.00;98347.56;5118099;28;19987;-62
2022/11/06 03:20:43;;;;;;;;;;;;;;;9.26;100.00;98348.09;5109486;28;19991;-62
2022/11/06 03:23:13;;;;;;;;;;;;;;;9.28;100.00;98346.84;5121826;28;19967;-61
2022/11/06 03:25:43;;;;;;;;;;;;;;;9.34;100.00;98343.19;5121911;28;19930;-63
2022/11/06 03:28:11;;;;;;;;;;;;;;;9.39;100.00;98345.94;5118210;28;19984;-62
2022/11/06 03:30:39;;;;;;;;;;;;;;;9.46;100.00;98341.25;5118441;28;19955;-62
2022/11/06 03:33:10;;;;;;;;;;;;;;;9.52;100.00;98347.44;5121527;28;20011;-62
2022/11/06 03:35:40;;;;;;;;;;;;;;;9.44;100.00;98343.31;5121640;28;19924;-61
2022/11/06 03:38:10;;;;;;;;;;;;;;;9.33;100.00;98341.56;5118295;28;19947;-62
2022/11/06 03:40:39;;;;;;;;;;;;;;;9.35;100.00;98347.47;5118047;28;19991;-62
2022/11/06 03:43:07;;;;;;;;;;;;;;;9.44;100.00;98348.66;5120862;28;19925;-62
2022/11/06 03:45:36;;;;;;;;;;;;;;;9.51;100.00;98341.31;5121573;28;19928;-62
2022/11/06 03:48:04;;;;;;;;;;;;;;;9.59;100.00;98340.88;5118941;28;19987;-62
2022/11/06 03:50:31;;;;;;;;;;;;;;;9.56;100.00;98344.03;5118127;28;19959;-63
2022/11/06 03:53:00;;;;;;;;;;;;;;;9.67;100.00;98342.31;5125754;28;20315;-62
2022/11/06 03:55:30;;;;;;;;;;;;;;;9.63;100.00;98344.66;5121251;28;19966;-62
2022/11/06 03:57:58;;;;;;;;;;;;;;;9.59;100.00;98337.41;5119475;28;20022;-62
2022/11/06 04:00:25;;;;;;;;;;;;;;;9.44;100.00;98339.88;5116759;28;20501;-62
2022/11/06 04:03:03;;;;;;;;;;;;;;;9.37;100.00;98324.06;5119293;28;19947;-62
2022/11/06 04:05:32;;;;;;;;;;;;;;;9.24;100.00;98324.38;5121062;28;20047;-62
2022/11/06 04:16:31;;;;;;;;;;;;;;;9.00;100.00;98325.63;5038475;28;19946;-63
2022/11/06 04:18:58;;;;;;;;;;;;;;;9.10;100.00;98328.41;5040459;28;19984;-62
2022/11/06 04:21:29;;;;;;;;;;;;;;;9.24;100.00;98319.06;5078875;28;19919;-63
2022/11/06 04:27:11;;;;;;;;;;;;;;;9.34;100.00;98318.41;5123269;28;19977;-62
2022/11/06 04:29:46;;;;;;;;;;;;;;;9.40;100.00;98326.22;5124513;28;19963;-62
2022/11/06 04:32:17;;;;;;;;;;;;;;;9.47;100.00;98321.50;5120948;28;19925;-63
2022/11/06 04:34:45;;;;;;;;;;;;;;;9.53;100.00;98325.06;5121092;28;19996;-62
2022/11/06 04:37:17;;;;;;;;;;;;;;;9.45;100.00;98310.28;5124565;28;19964;-62
2022/11/06 04:39:48;;;;;;;;;;;;;;;9.30;100.00;98310.09;5124144;28;19979;-62
2022/11/06 04:42:20;;;;;;;;;;;;;;;9.17;100.00;98308.56;5120612;28;20010;-63
2022/11/06 04:44:49;;;;;;;;;;;;;;;9.27;100.00;98305.25;5121110;28;19923;-62
2022/11/06 04:47:17;;;;;;;;;;;;;;;9.35;100.00;98302.16;5124128;28;19924;-63
2022/11/06 04:49:44;;;;;;;;;;;;;;;9.41;100.00;98298.50;5123933;28;19991;-62
2022/11/06 04:52:13;;;;;;;;;;;;;;;9.43;100.00;98296.41;5121515;28;19928;-62
2022/11/06 04:54:40;;;;;;;;;;;;;;;9.46;100.00;98292.44;5124168;28;19924;-62
2022/11/06 04:57:07;;;;;;;;;;;;;;;9.36;100.00;98287.78;5123464;28;19919;-64
2022/11/06 04:59:35;;;;;;;;;;;;;;;9.40;100.00;98291.56;5123914;28;20464;-63
2022/11/06 05:02:01;;;;;;;;;;;;;;;9.39;100.00;98292.63;5120649;28;19975;-63
2022/11/06 05:04:28;;;;;;;;;;;;;;;9.37;100.00;98292.06;5120456;28;19971;-62
2022/11/06 05:06:54;;;;;;;;;;;;;;;9.30;100.00;98291.41;5121502;28;20272;-62
2022/11/06 05:09:20;;;;;;;;;;;;;;;9.32;100.00;98283.97;5123472;28;20414;-63
2022/11/06 05:11:47;;;;;;;;;;;;;;;9.20;100.00;98278.75;5122946;28;20010;-63
2022/11/06 05:14:13;;;;;;;;;;;;;;;9.04;100.00;98281.44;5119490;28;19992;-63
2022/11/06 05:16:41;;;;;;;;;;;;;;;9.13;100.00;98278.13;5119928;28;20074;-61
2022/11/06 05:19:07;;;;;;;;;;;;;;;9.15;100.00;98277.88;5123176;28;20416;-62
2022/11/06 05:24:17;;;;;;;;;;;;;;;9.22;100.00;98267.88;5125952;28;19928;-62
2022/11/06 05:26:44;;;;;;;;;;;;;;;9.26;100.00;98278.81;5120268;28;19928;-62
2022/11/06 05:29:11;;;;;;;;;;;;;;;9.32;100.00;98275.16;5123656;28;19983;-62
2022/11/06 05:31:37;;;;;;;;;;;;;;;9.18;100.00;98285.38;5123354;28;19930;-63
2022/11/06 05:34:05;;;;;;;;;;;;;;;8.71;100.00;98278.78;5120323;28;19997;-62
2022/11/06 05:36:31;;;;;;;;;;;;;;;8.64;100.00;98284.25;5119487;28;19924;-62
2022/11/06 05:38:57;;;;;;;;;;;;;;;8.62;100.00;98284.53;5121504;28;19924;-63
2022/11/06 05:41:24;;;;;;;;;;;;;;;8.71;100.00;98284.91;5123226;28;19955;-63
2022/11/06 05:43:50;;;;;;;;;;;;;;;8.62;100.00;98289.84;5121974;28;19962;-63
2022/11/06 05:46:16;;;;;;;;;;;;;;;8.17;100.00;98288.22;5119657;28;19932;-63
2022/11/06 05:48:43;;;;;;;;;;;;;;;7.82;100.00;98291.00;5119558;28;19984;-62
2022/11/06 05:51:11;;;;;;;;;;;;;;;7.70;100.00;98296.34;5111099;28;19971;-62
2022/11/06 05:53:37;;;;;;;;;;;;;;;8.06;100.00;98292.53;5124489;28;19924;-62
2022/11/06 05:56:04;;;;;;;;;;;;;;;8.44;100.00;98294.59;5120075;28;20026;-62
2022/11/06 05:58:31;;;;;;;;;;;;;;;8.23;100.00;98290.72;5119223;28;19924;-62
2022/11/06 06:00:58;;;;;;;;;;;;;;;8.34;100.00;98295.22;5121093;28;19987;-63
2022/11/06 06:03:24;;;;;;;;;;;;;;;8.37;100.00;98291.25;5122432;28;20018;-62
2022/11/06 06:05:51;;;;;;;;;;;;;;;8.17;100.00;98282.88;5121470;28;19928;-62
2022/11/06 06:08:19;;;;;;;;;;;;;;;8.11;100.00;98284.63;5119311;28;20026;-63
2022/11/06 06:10:46;;;;;;;;;;;;;;;7.97;100.00;98292.09;5119253;28;19931;-62
2022/11/06 06:13:13;;;;;;;;;;;;;;;8.18;100.00;98289.81;5122635;28;20042;-62
2022/11/06 06:15:40;;;;;;;;;;;;;;;8.50;100.00;98289.13;5122399;28;19934;-62
2022/11/06 06:18:06;;;;;;;;;;;;;;;8.60;100.00;98291.91;5119112;28;19931;-62
2022/11/06 06:20:33;;;;;;;;;;;;;;;8.54;100.00;98292.88;5119016;28;19952;-62
2022/11/06 06:23:00;;;;;;;;;;;;;;;8.74;100.00;98288.97;5126900;28;19982;-62
2022/11/06 06:25:28;;;;;;;;;;;;;;;8.84;100.00;98286.47;5121608;28;19930;-62
2022/11/06 06:27:55;;;;;;;;;;;;;;;8.90;100.00;98290.81;5120790;28;19995;-62
2022/11/06 06:30:21;;;;;;;;;;;;;;;8.88;100.00;98276.94;5118678;28;19931;-62
2022/11/06 06:32:48;;;;;;;;;;;;;;;8.92;100.00;98281.53;5119201;28;19946;-63
2022/11/06 06:35:16;;;;;;;;;;;;;;;8.92;100.00;98286.03;5122155;28;19934;-63
2022/11/06 06:37:42;;;;;;;;;;;;;;;8.77;100.00;98285.81;5122230;28;19931;-62
2022/11/06 06:40:09;;;;;;;;;;;;;;;8.45;100.00;98285.53;5109884;28;19930;-62
2022/11/06 06:42:37;;;;;;;;;;;;;;;7.97;100.00;98285.97;5110123;28;19934;-62
2022/11/06 06:45:04;;;;;;;;;;;;;;;8.04;100.00;98291.97;5109867;28;20001;-63
2022/11/06 06:47:30;;;;;;;;;;;;;;;8.00;100.00;98294.28;5109922;28;19959;-62
2022/11/06 06:49:56;;;;;;;;;;;;;;;7.76;100.00;98286.63;5109905;28;19924;-62
2022/11/06 06:52:23;;;;;;;;;;;;;;;7.57;100.00;98283.31;5112938;28;19979;-62
2022/11/06 06:54:49;;;;;;;;;;;;;;;7.45;100.00;98275.38;5103972;28;19946;-63
2022/11/06 06:57:15;;;;;;;;;;;;;;;7.67;100.00;98274.72;5121953;28;19991;-62
2022/11/06 06:59:43;;;;;;;;;;;;;;;7.63;100.00;98277.06;5121870;28;19924;-62
2022/11/06 07:02:09;;;;;;;;;;;;;;;7.47;100.00;98267.94;5109612;28;20015;-62
2022/11/06 07:04:35;;;;;;;;;;;;;;;7.52;100.00;98285.88;5109696;28;19955;-62
2022/11/06 07:07:02;;;;;;;;;;;;;;;7.90;100.00;98278.13;5110046;28;19932;-62
2022/11/06 07:09:29;;;;;;;;;;;;;;;7.56;100.00;98287.00;5109968;28;19980;-62
2022/11/06 07:11:56;;;;;;;;;;;;;;;7.50;100.00;98288.75;5109977;28;20574;-62
2022/11/06 07:14:22;;;;;;;;;;;;;;;7.92;100.00;98291.19;5109696;28;19924;-62
2022/11/06 07:16:50;;;;;;;;;;;;;;;8.26;100.00;98284.94;5109868;28;19930;-62
2022/11/06 07:19:16;;;;;;;;;;;;;;;8.15;100.00;98289.25;5109669;28;19924;-62
2022/11/06 07:21:42;;;;;;;;;;;;;;;7.87;100.00;98293.75;5109565;28;19931;-62
2022/11/06 07:24:09;;;;;;;;;;;;;;;7.81;100.00;98290.19;5123408;28;20023;-61
2022/11/06 07:26:35;;;;;;;;;;;;;;;7.79;100.00;98297.59;5117722;28;19923;-62
2022/11/06 07:29:02;;;;;;;;;;;;;;;7.67;100.00;98294.16;5120492;28;20013;-62
2022/11/06 07:31:30;;;;;;;;;;;;;;;7.41;100.00;98290.16;5121749;28;19991;-62
2022/11/06 07:33:57;;;;;;;;;;;;;;;7.11;100.00;98304.59;5119733;28;20007;-62
2022/11/06 07:36:24;;;;;;;;;;;;;;;7.28;100.00;98289.56;5101280;28;19924;-62
2022/11/06 07:38:50;;;;;;;;;;;;;;;7.32;100.00;98310.16;5122790;28;19924;-62
2022/11/06 07:41:16;;;;;;;;;;;;;;;7.74;100.00;98305.44;5125773;28;19931;-62
2022/11/06 07:43:43;;;;;;;;;;;;;;;7.44;100.00;98310.94;5125735;28;20006;-63
2022/11/06 07:46:10;;;;;;;;;;;;;;;7.02;100.00;98301.50;5113677;28;19931;-62
2022/11/06 07:48:38;;;;;;;;;;;;;;;7.51;100.00;98316.13;5113665;28;19987;-62
2022/11/06 07:51:07;;;;;;;;;;;;;;;7.78;100.00;98316.41;5113462;28;19934;-63
2022/11/06 07:53:33;;;;;;;;;;;;;;;7.97;100.00;98320.53;5126251;28;19923;-62
2022/11/06 07:56:00;;;;;;;;;;;;;;;8.05;100.00;98309.50;5122909;28;20066;-62
2022/11/06 07:58:27;;;;;;;;;;;;;;;8.22;100.00;98312.25;5121732;28;19988;-62
2022/11/06 08:00:54;;;;;;;;;;;;;;;8.41;100.00;98319.81;5122862;28;20041;-63
2022/11/06 08:03:20;;;;;;;;;;;;;;;8.51;100.00;98319.19;5124950;28;19924;-62
2022/11/06 08:05:47;;;;;;;;;;;;;;;8.57;100.00;98321.69;5124497;28;20427;-62
2022/11/06 08:08:14;;;;;;;;;;;;;;;8.69;100.00;98316.31;5121509;28;20020;-61
2022/11/06 08:10:42;;;;;;;;;;;;;;;8.74;100.00;98313.72;5121619;28;19991;-62
2022/11/06 08:13:09;;;;;;;;;;;;;;;8.78;100.00;98298.91;5121840;28;19930;-62
2022/11/06 08:15:36;;;;;;;;;;;;;;;8.84;100.00;98294.44;5121690;28;19991;-62
2022/11/06 08:18:03;;;;;;;;;;;;;;;8.58;100.00;98291.38;5121525;28;19988;-62
2022/11/06 08:20:29;;;;;;;;;;;;;;;8.69;100.00;98281.72;5119539;28;20022;-62
2022/11/06 08:22:58;;;;;;;;;;;;;;;8.76;100.00;98279.66;5124951;28;19994;-63
2022/11/06 08:25:25;;;;;;;;;;;;;;;8.76;100.00;98277.00;5125062;28;19991;-62
2022/11/06 08:27:54;;;;;;;;;;;;;;;8.75;100.00;98274.59;5123662;28;19924;-62
2022/11/06 08:30:20;;;;;;;;;;;;;;;8.76;100.00;98271.69;5121453;28;19980;-62
2022/11/06 08:32:46;;;;;;;;;;;;;;;8.82;100.00;98264.59;5121812;28;20536;-61
2022/11/06 08:35:12;;;;;;;;;;;;;;;8.80;100.00;98256.03;5124721;28;19934;-62
2022/11/06 08:37:39;;;;;;;;;;;;;;;8.91;100.00;98255.16;5124776;28;19923;-62
2022/11/06 08:40:06;;;;;;;;;;;;;;;8.96;100.00;98249.88;5121614;28;19988;-63
2022/11/06 08:42:33;;;;;;;;;;;;;;;8.89;100.00;98243.91;5121070;28;19978;-63
2022/11/06 08:45:00;;;;;;;;;;;;;;;8.82;100.00;98248.63;5123227;28;19967;-62
2022/11/06 08:47:26;;;;;;;;;;;;;;;8.88;100.00;98247.66;5124040;28;19974;-62
2022/11/06 08:49:52;;;;;;;;;;;;;;;8.93;100.00;98245.06;5122836;28;19986;-62
2022/11/06 08:52:19;;;;;;;;;;;;;;;9.09;100.00;98244.22;5122718;28;20019;-63
2022/11/06 08:54:45;;;;;;;;;;;;;;;9.08;100.00;98248.75;5124071;28;19979;-63
2022/11/06 08:57:11;;;;;;;;;;;;;;;8.97;100.00;98238.19;5124127;28;19920;-63
2022/11/06 08:59:39;;;;;;;;;;;;;;;8.78;100.00;98234.97;5124268;28;19924;-63
2022/11/06 09:02:05;;;;;;;;;;;;;;;8.60;100.00;98235.22;5120641;28;19960;-63
2022/11/06 09:04:32;;;;;;;;;;;;;;;8.56;100.00;98228.78;5120435;28;19966;-62
2022/11/06 09:06:58;;;;;;;;;;;;;;;8.31;100.00;98215.84;5122562;28;20256;-62
2022/11/06 09:09:30;;;;;;;;;;;;;;;8.13;100.00;98218.72;5123963;28;19979;-62
2022/11/06 09:11:57;;;;;;;;;;;;;;;8.19;100.00;98211.63;5122014;28;19992;-62
2022/11/06 09:14:23;;;;;;;;;;;;;;;8.13;100.00;98208.06;5120366;28;19971;-63
2022/11/06 09:16:51;;;;;;;;;;;;;;;8.11;100.00;98204.81;5120836;28;19931;-62
2022/11/06 09:19:17;;;;;;;;;;;;;;;8.07;100.00;98201.03;5123559;28;19970;-62
2022/11/06 09:21:44;;;;;;;;;;;;;;;8.15;100.00;98205.97;5123734;28;20019;-62
2022/11/06 09:24:10;;;;;;;;;;;;;;;7.94;100.00;98194.19;5125738;28;19931;-63
2022/11/06 09:26:36;;;;;;;;;;;;;;;7.92;100.00;98198.91;5120210;28;19975;-62
2022/11/06 09:29:03;;;;;;;;;;;;;;;8.02;100.00;98192.97;5122369;28;19935;-62
2022/11/06 09:31:29;;;;;;;;;;;;;;;8.09;100.00;98197.09;5123195;28;19924;-62
2022/11/06 09:33:57;;;;;;;;;;;;;;;8.19;100.00;98190.34;5121668;28;19987;-63
2022/11/06 09:36:23;;;;;;;;;;;;;;;8.24;100.00;98193.88;5119888;28;19931;-62
2022/11/06 09:38:49;;;;;;;;;;;;;;;8.35;100.00;98189.56;5120677;28;19969;-61
2022/11/06 09:41:18;;;;;;;;;;;;;;;8.44;100.00;98194.25;5123360;28;19959;-62
2022/11/06 09:43:53;;;;;;;;;;;;;;;8.54;100.00;98186.41;5123247;28;19930;-62
2022/11/06 09:46:24;;;;;;;;;;;;;;;8.51;100.00;98184.22;5119769;28;19975;-62
2022/11/06 09:48:53;;;;;;;;;;;;;;;8.58;100.00;98176.91;5120627;28;19924;-62
2022/11/06 09:51:26;;;;;;;;;;;;;;;8.65;100.00;98174.88;5123098;28;20550;-63
2022/11/06 09:53:55;;;;;;;;;;;;;;;8.56;100.00;98171.03;5127660;28;19930;-62
2022/11/06 09:56:24;;;;;;;;;;;;;;;8.63;100.00;98165.53;5119749;28;20035;-62
2022/11/06 09:58:52;;;;;;;;;;;;;;;8.58;100.00;98173.44;5120757;28;19935;-62
2022/11/06 10:01:20;;;;;;;;;;;;;;;8.46;100.00;98165.53;5123973;28;19927;-62
2022/11/06 10:03:50;;;;;;;;;;;;;;;8.48;100.00;98162.66;5126988;28;19955;-62
2022/11/06 10:06:17;;;;;;;;;;;;;;;8.54;100.00;98170.44;5122868;28;19958;-62
2022/11/06 10:08:45;;;;;;;;;;;;;;;8.68;100.00;98169.06;5123143;28;19963;-63
2022/11/06 10:11:26;;;;;;;;;;;;;;;8.67;100.00;98161.31;5111206;28;19987;-63
2022/11/06 10:13:56;;;;;;;;;;;;;;;8.60;100.00;98148.16;5110595;28;20016;-62
2022/11/06 10:16:29;;;;;;;;;;;;;;;8.60;100.00;98145.50;5110845;28;19928;-62
2022/11/06 10:19:00;;;;;;;;;;;;;;;8.63;100.00;98145.00;5110756;28;20025;-62
2022/11/06 10:21:33;;;;;;;;;;;;;;;8.51;100.00;98136.31;5110892;28;19959;-63
2022/11/06 10:24:07;;;;;;;;;;;;;;;8.51;100.00;98123.00;5124939;28;19999;-63
2022/11/06 10:26:37;;;;;;;;;;;;;;;8.45;100.00;98128.50;5119432;28;19924;-63
2022/11/06 10:29:10;;;;;;;;;;;;;;;8.42;100.00;98132.47;5121788;28;20012;-63
2022/11/06 10:31:43;;;;;;;;;;;;;;;8.45;100.00;98133.81;5122464;28;20566;-62
2022/11/06 10:34:13;;;;;;;;;;;;;;;8.34;100.00;98118.78;5110641;28;19983;-63
2022/11/06 10:36:41;;;;;;;;;;;;;;;8.26;100.00;98125.28;5110658;28;20012;-62
2022/11/06 10:39:15;;;;;;;;;;;;;;;8.06;100.00;98119.63;5110452;28;19959;-62
2022/11/06 10:41:43;;;;;;;;;;;;;;;7.97;100.00;98113.09;5110134;28;19924;-63
2022/11/06 10:44:13;;;;;;;;;;;;;;;8.07;100.00;98105.28;5104118;28;19987;-62
2022/11/06 10:46:42;;;;;;;;;;;;;;;7.99;100.00;98111.81;5122340;28;20035;-62
2022/11/06 10:49:15;;;;;;;;;;;;;;;8.01;100.00;98107.06;5100607;28;20023;-62
2022/11/06 10:51:47;;;;;;;;;;;;;;;8.06;100.00;98098.34;5118991;28;19920;-61
2022/11/06 10:54:23;;;;;;;;;;;;;;;8.05;100.00;98105.53;5124363;28;19924;-62
2022/11/06 10:56:58;;;;;;;;;;;;;;;8.05;100.00;98094.88;5119133;28;20004;-62
2022/11/06 10:59:24;;;;;;;;;;;;;;;7.98;100.00;98090.78;5122015;28;19934;-62
2022/11/06 11:01:51;;;;;;;;;;;;;;;8.08;100.00;98083.75;5120673;28;20049;-63
2022/11/06 11:04:17;;;;;;;;;;;;;;;8.09;100.00;98063.28;5118102;28;19987;-63
2022/11/06 11:06:43;;;;;;;;;;;;;;;8.12;100.00;98062.81;5100681;28;20447;-63
2022/11/06 11:09:28;;;;;;;;;;;;;;;8.15;100.00;98049.00;5109967;28;20026;-63
2022/11/06 11:11:54;;;;;;;;;;;;;;;8.35;100.00;98046.69;5109457;28;19928;-63
2022/11/06 11:14:23;;;;;;;;;;;;;;;8.47;100.00;98034.09;5109753;28;20339;-62
2022/11/06 11:16:49;;;;;;;;;;;;;;;8.48;100.00;98018.94;5109714;28;19946;-63
2022/11/06 11:19:24;;;;;;;;;;;;;;;8.65;100.00;98014.34;5109677;28;19924;-63
2022/11/06 11:21:54;;;;;;;;;;;;;;;8.71;100.00;98015.19;5109851;28;19924;-62
2022/11/06 11:24:21;;;;;;;;;;;;;;;8.63;100.00;98014.56;5123983;28;19935;-63
2022/11/06 11:26:51;;;;;;;;;;;;;;;8.64;100.00;98012.72;5118366;28;19955;-62
2022/11/06 11:29:22;;;;;;;;;;;;;;;8.68;100.00;98009.31;5121508;28;19928;-63
2022/11/06 11:31:51;;;;;;;;;;;;;;;8.71;100.00;98005.34;5120783;28;19923;-63
2022/11/06 11:34:19;;;;;;;;;;;;;;;8.76;100.00;98004.63;5118145;28;19949;-63
2022/11/06 11:36:54;;;;;;;;;;;;;;;8.83;100.00;97994.56;5118308;28;19959;-64
2022/11/06 11:39:21;;;;;;;;;;;;;;;8.82;100.00;97987.66;5121367;28;19924;-62
2022/11/06 11:41:49;;;;;;;;;;;;;;;8.86;100.00;97986.06;5121030;28;20025;-63
2022/11/06 11:44:16;;;;;;;;;;;;;;;8.93;100.00;97978.72;5117876;28;19987;-62
2022/11/06 11:46:47;;;;;;;;;;;;;;;9.00;100.00;97974.00;5117927;28;20388;-63
2022/11/06 11:49:25;;;;;;;;;;;;;;;9.00;100.00;97968.66;5117727;28;19925;-63
2022/11/06 11:51:52;;;;;;;;;;;;;;;8.96;100.00;97967.56;5118747;28;19983;-62
2022/11/06 11:54:19;;;;;;;;;;;;;;;9.02;100.00;97963.88;5124742;28;19924;-63
2022/11/06 11:56:48;;;;;;;;;;;;;;;9.14;100.00;97959.19;5118016;28;19924;-63
2022/11/06 11:59:18;;;;;;;;;;;;;;;9.17;100.00;97964.84;5121313;28;20019;-63
2022/11/06 12:01:45;;;;;;;;;;;;;;;9.25;100.00;97950.25;5121002;28;20018;-63
2022/11/06 12:04:19;;;;;;;;;;;;;;;9.21;100.00;97941.97;5117546;28;19931;-62
2022/11/06 12:06:53;;;;;;;;;;;;;;;9.23;100.00;97936.38;5117553;28;19931;-64
2022/11/06 12:09:20;;;;;;;;;;;;;;;9.28;100.00;97927.63;5121061;28;20019;-63
2022/11/06 12:11:47;;;;;;;;;;;;;;;9.26;100.00;97922.53;5120904;28;20403;-63
2022/11/06 12:14:18;;;;;;;;;;;;;;;9.21;100.00;97911.84;5117645;28;20011;-62
2022/11/06 12:16:47;;;;;;;;;;;;;;;9.22;100.00;97913.47;5117703;28;19992;-63
2022/11/06 12:19:14;;;;;;;;;;;;;;;9.39;100.00;97897.31;5121083;28;19955;-63
2022/11/06 12:21:42;;;;;;;;;;;;;;;9.36;100.00;97893.31;5121223;28;20013;-63
2022/11/06 12:24:12;;;;;;;;;;;;;;;9.40;100.00;97899.75;5125795;28;19983;-63
2022/11/06 12:26:43;;;;;;;;;;;;;;;9.38;100.00;97885.84;5121550;28;19992;-62
2022/11/06 12:29:11;;;;;;;;;;;;;;;9.43;100.00;97888.56;5121360;28;19924;-62
2022/11/06 12:31:41;;;;;;;;;;;;;;;9.39;100.00;97890.13;5121286;28;19925;-63
2022/11/06 12:34:11;;;;;;;;;;;;;;;9.38;100.00;97883.19;5124471;28;19934;-62
2022/11/06 12:36:41;;;;;;;;;;;;;;;9.49;100.00;97892.06;5125077;28;19991;-62
2022/11/06 12:39:12;;;;;;;;;;;;;;;9.53;100.00;97882.50;5112906;28;19963;-62
2022/11/06 12:41:40;;;;;;;;;;;;;;;9.56;100.00;97877.44;5121279;28;19962;-64
2022/11/06 12:44:09;;;;;;;;;;;;;;;9.62;100.00;97881.75;5123914;28;20007;-63
2022/11/06 12:46:45;;;;;;;;;;;;;;;9.74;100.00;97887.72;5124887;28;19979;-62
2022/11/06 12:49:27;;;;;;;;;;;;;;;9.83;100.00;97866.69;5120856;28;19979;-62
2022/11/06 12:51:57;;;;;;;;;;;;;;;9.89;100.00;97868.31;5122589;28;19924;-63
2022/11/06 12:54:39;;;;;;;;;;;;;;;9.88;100.00;97864.03;5127565;28;19959;-61
2022/11/06 12:57:11;;;;;;;;;;;;;;;9.91;100.00;97871.53;5123849;28;20440;-63
2022/11/06 12:59:43;;;;;;;;;;;;;;;9.90;100.00;97861.94;5124444;28;19978;-63
2022/11/06 13:02:21;;;;;;;;;;;;;;;9.88;100.00;97855.22;5111877;28;19931;-63
2022/11/06 13:04:52;;;;;;;;;;;;;;;9.87;100.00;97861.66;5112132;28;19925;-62
2022/11/06 13:07:39;;;;;;;;;;;;;;;9.91;100.00;97849.38;5112112;28;19963;-63